KAYS

Waycross-Ware County Airport

Waycross, Georgia, USA
METAR KAYS 201655Z AUTO 26012G16KT 10SM BKN035 BKN043 31/19 A3002 RMK AO2 T03070188
Observed Flight Rules
Oct-20 @ 16:55 UTC (16 minutes ago) Visual Flight Rules
Wind Visibility Clouds
260° at 12 knots
 Gusting to 16 knots
10 miles
  • Broken at 3,500' AGL
  • Broken at 4,300' AGL
Temperatures Readings
Current 31°C / 88°F
Dewpoint 19°C / 66°F
Humidity 49%
Altimeter 30.02" Hg
Pressure 1017 hPa
Elevation 46
METAR KAYS 201655Z AUTO 26012G16KT 10SM BKN035 BKN043 31/19 A3002 RMK AO2 T03070188
Observed Flight Rules
Oct-20 @ 16:55 UTC
(16 minutes ago)
VFR
Wind Visibility
260° at 12 knots
 Gusting to 16 knots
10 miles
Clouds
  • Broken at 3,500' AGL
  • Broken at 4,300' AGL
Temperature Dewpoint
31°C / 88°F 19°C / 66°F
Humidity Altimeter Pressure
49% 30.02" Hg 1017 hPa